Time,TemperatureF,DewpointF,PressureIn,WindDirection,WindDirectionDegrees,WindSpeedMPH,WindSpeedGustMPH,Humidity,HourlyPrecipIn,Conditions,Clouds,dailyrainin,SoftwareType,DateUTC
2013-01-18 00:02:00,27.0,-50.0,30.44,South,180,0.0,1.0,2,-99.99,,,-99.99,,2013-01-18 06:02:00,
2013-01-18 00:12:00,27.0,-54.0,30.44,SSE,150,0.0,1.0,0,-99.99,,,-99.99,,2013-01-18 06:12:00,
2013-01-18 00:22:00,27.0,-54.0,30.44,SSE,150,0.0,1.0,0,-99.99,,,-99.99,,2013-01-18 06:22:00,
2013-01-18 00:33:00,27.0,-54.0,30.44,SW,230,0.0,1.0,0,-99.99,,,-99.99,,2013-01-18 06:33:00,
2013-01-18 00:43:00,27.0,-54.0,30.44,SSW,210,0.0,0.0,0,-99.99,,,-99.99,,2013-01-18 06:43:00,
2013-01-18 00:52:00,27.0,-54.0,30.44,SSW,210,0.0,0.0,0,-99.99,,,-99.99,,2013-01-18 06:52:00,
2013-01-18 01:02:00,27.0,-54.0,30.45,WSW,240,0.0,4.0,0,-99.99,,,-99.99,,2013-01-18 07:02:00,
2013-01-18 01:12:00,27.0,-54.0,30.45,WNW,290,1.0,2.0,0,-99.99,,,-99.99,,2013-01-18 07:12:00,
2013-01-18 01:22:00,27.0,-54.0,30.45,WNW,290,1.0,2.0,0,-99.99,,,-99.99,,2013-01-18 07:22:00,
2013-01-18 01:32:00,26.0,-55.0,30.45,WNW,290,0.0,2.0,0,-99.99,,,-99.99,,2013-01-18 07:32:00,
2013-01-18 01:42:00,26.0,-51.0,30.45,North,0,0.0,0.0,2,-99.99,,,-99.99,,2013-01-18 07:42:00,
2013-01-18 01:52:00,26.0,-51.0,30.45,North,0,0.0,0.0,2,-99.99,,,-99.99,,2013-01-18 07:52:00,
2013-01-18 02:02:00,26.0,-55.0,30.45,SW,235,0.0,1.0,0,-99.99,,,-99.99,,2013-01-18 08:02:00,
2013-01-18 02:12:00,26.0,-55.0,30.45,SW,235,0.0,0.0,0,-99.99,,,-99.99,,2013-01-18 08:12:00,
2013-01-18 02:22:00,26.0,-55.0,30.45,SW,235,0.0,0.0,0,-99.99,,,-99.99,,2013-01-18 08:22:00,
2013-01-18 02:32:00,26.0,-55.0,30.45,SW,230,1.0,1.0,0,-99.99,,,-99.99,,2013-01-18 08:32:00,
2013-01-18 02:42:00,25.0,-55.0,30.45,WSW,255,0.0,1.0,0,-99.99,,,-99.99,,2013-01-18 08:42:00,
2013-01-18 02:52:00,25.0,-55.0,30.45,WSW,255,0.0,1.0,0,-99.99,,,-99.99,,2013-01-18 08:52:00,
2013-01-18 03:03:00,25.0,-99.9,30.46,West,260,0.0,1.0,-999,-99.99,,,-99.99,,2013-01-18 09:03:00,
2013-01-18 03:12:00,26.0,-99.9,30.45,WNW,295,0.0,1.0,-999,-99.99,,,-99.99,,2013-01-18 09:12:00,
2013-01-18 03:22:00,26.0,-99.9,30.45,WNW,295,0.0,1.0,-999,-99.99,,,-99.99,,2013-01-18 09:22:00,
2013-01-18 03:33:00,24.0,-99.9,30.45,West,260,0.0,1.0,-999,-99.99,,,-99.99,,2013-01-18 09:33:00,
2013-01-18 03:43:00,25.0,-99.9,30.45,WSW,255,0.0,1.0,-999,-99.99,,,-99.99,,2013-01-18 09:43:00,
2013-01-18 03:53:00,25.0,-99.9,30.45,WSW,255,0.0,1.0,-999,-99.99,,,-99.99,,2013-01-18 09:53:00,
2013-01-18 04:03:00,24.0,-99.9,30.44,SW,230,0.0,1.0,-999,-99.99,,,-99.99,,2013-01-18 10:03:00,
2013-01-18 04:12:00,24.0,-99.9,30.44,WSW,250,0.0,2.0,-999,-99.99,,,-99.99,,2013-01-18 10:12:00,
2013-01-18 04:22:00,24.0,-99.9,30.44,WSW,250,0.0,2.0,-999,-99.99,,,-99.99,,2013-01-18 10:22:00,
2013-01-18 04:32:00,24.0,-56.0,30.44,SW,230,0.0,2.0,0,-99.99,,,-99.99,,2013-01-18 10:32:00,
2013-01-18 04:42:00,24.0,-56.0,30.44,SW,225,0.0,0.0,0,-99.99,,,-99.99,,2013-01-18 10:42:00,
2013-01-18 04:52:00,24.0,-56.0,30.44,SW,225,0.0,0.0,0,-99.99,,,-99.99,,2013-01-18 10:52:00,
2013-01-18 05:03:00,24.0,-99.9,30.44,SSW,205,1.0,2.0,-999,-99.99,,,-99.99,,2013-01-18 11:03:00,
2013-01-18 05:12:00,24.0,-99.9,30.44,South,175,0.0,2.0,-999,-99.99,,,-99.99,,2013-01-18 11:12:00,
2013-01-18 05:23:00,24.0,-99.9,30.44,South,175,0.0,2.0,-999,-99.99,,,-99.99,,2013-01-18 11:23:00,
2013-01-18 05:33:00,24.0,-99.9,30.43,SSE,165,0.0,1.0,-999,-99.99,,,-99.99,,2013-01-18 11:33:00,
2013-01-18 05:43:00,24.0,-99.9,30.44,West,275,1.0,3.0,-999,-99.99,,,-99.99,,2013-01-18 11:43:00,
2013-01-18 05:53:00,24.0,-99.9,30.44,West,275,1.0,3.0,-999,-99.99,,,-99.99,,2013-01-18 11:53:00,
2013-01-18 06:03:00,24.0,-99.9,30.43,SSW,205,2.0,3.0,-999,-99.99,,,-99.99,,2013-01-18 12:03:00,
2013-01-18 06:12:00,24.0,-99.9,30.43,SSE,165,1.0,4.0,-999,-99.99,,,-99.99,,2013-01-18 12:12:00,
2013-01-18 06:23:00,24.0,-99.9,30.43,SSE,165,1.0,4.0,-999,-99.99,,,-99.99,,2013-01-18 12:23:00,
2013-01-18 06:33:00,25.0,-99.9,30.43,SSW,210,1.0,2.0,-999,-99.99,,,-99.99,,2013-01-18 12:33:00,
2013-01-18 06:43:00,25.0,-99.9,30.42,SSW,195,1.0,3.0,-999,-99.99,,,-99.99,,2013-01-18 12:43:00,
2013-01-18 06:53:00,25.0,-99.9,30.42,SSW,195,1.0,3.0,-999,-99.99,,,-99.99,,2013-01-18 12:53:00,
2013-01-18 07:00:00,26.0,-99.9,30.42,SSW,195,3.0,6.0,-999,-99.99,,,-99.99,,2013-01-18 13:00:00,
2013-01-18 07:03:00,25.0,-99.9,30.42,South,185,1.0,3.0,-999,-99.99,,,-99.99,,2013-01-18 13:03:00,
2013-01-18 07:12:00,26.0,-99.9,30.42,South,190,2.0,5.0,-999,-99.99,,,-99.99,,2013-01-18 13:12:00,
2013-01-18 07:23:00,26.0,-99.9,30.42,South,190,2.0,5.0,-999,-99.99,,,-99.99,,2013-01-18 13:23:00,
2013-01-18 07:33:00,26.0,-99.9,30.42,SSW,200,2.0,6.0,-999,-99.99,,,-99.99,,2013-01-18 13:33:00,
2013-01-18 07:43:00,26.0,-99.9,30.42,SSW,195,3.0,6.0,-999,-99.99,,,-99.99,,2013-01-18 13:43:00,
2013-01-18 07:53:00,26.0,-99.9,30.42,SSW,195,3.0,6.0,-999,-99.99,,,-99.99,,2013-01-18 13:53:00,
2013-01-18 08:13:00,26.0,-99.9,30.43,South,175,2.0,3.0,-999,-99.99,,,-99.99,,2013-01-18 14:13:00,
2013-01-18 08:23:00,26.0,-99.9,30.43,South,175,2.0,3.0,-999,-99.99,,,-99.99,,2013-01-18 14:23:00,
2013-01-18 08:34:00,27.0,-99.9,30.42,SSW,210,2.0,5.0,-999,-99.99,,,-99.99,,2013-01-18 14:34:00,
2013-01-18 08:42:00,27.0,-54.0,30.42,SSW,200,2.0,5.0,0,-99.99,,,-99.99,,2013-01-18 14:42:00,
2013-01-18 08:53:00,27.0,-54.0,30.42,SSW,200,2.0,5.0,0,-99.99,,,-99.99,,2013-01-18 14:53:00,
2013-01-18 09:03:00,29.0,-53.0,30.42,SSW,205,3.0,5.0,0,-99.99,,,-99.99,,2013-01-18 15:03:00,
2013-01-18 09:12:00,30.0,-52.0,30.42,South,190,2.0,6.0,0,-99.99,,,-99.99,,2013-01-18 15:12:00,
2013-01-18 09:23:00,30.0,-52.0,30.42,South,190,2.0,6.0,0,-99.99,,,-99.99,,2013-01-18 15:23:00,
2013-01-18 09:33:00,31.0,-52.0,30.42,SW,215,4.0,6.0,0,-99.99,,,-99.99,,2013-01-18 15:33:00,
2013-01-18 09:43:00,32.0,-51.0,30.42,SSW,205,5.0,8.0,0,-99.99,,,-99.99,,2013-01-18 15:43:00,
2013-01-18 09:53:00,32.0,-51.0,30.42,SSW,205,5.0,8.0,0,-99.99,,,-99.99,,2013-01-18 15:53:00,
2013-01-18 10:03:00,34.0,-50.0,30.41,SSW,200,6.0,11.0,0,-99.99,,,-99.99,,2013-01-18 16:03:00,
2013-01-18 10:12:00,35.0,-11.0,30.41,SW,215,5.0,11.0,13,-99.99,,,-99.99,,2013-01-18 16:12:00,
2013-01-18 10:23:00,35.0,-11.0,30.41,SW,215,5.0,11.0,13,-99.99,,,-99.99,,2013-01-18 16:23:00,
2013-01-18 10:33:00,36.0,-55.0,30.40,SW,225,7.0,13.0,1,-99.99,,,-99.99,,2013-01-18 16:33:00,
2013-01-18 10:42:00,37.0,-9.0,30.40,SW,235,8.0,13.0,13,-99.99,,,-99.99,,2013-01-18 16:42:00,
2013-01-18 10:52:00,37.0,-9.0,30.40,SW,235,8.0,13.0,13,-99.99,,,-99.99,,2013-01-18 16:52:00,
2013-01-18 11:00:00,42.0,20.0,30.37,WSW,240,9.0,15.0,42,-99.99,,,-99.99,,2013-01-18 17:00:00,
2013-01-18 11:03:00,39.0,20.0,30.39,SSW,200,7.0,12.0,46,-99.99,,,-99.99,,2013-01-18 17:03:00,
2013-01-18 11:13:00,40.0,20.0,30.39,SSW,200,5.0,10.0,45,-99.99,,,-99.99,,2013-01-18 17:13:00,
2013-01-18 11:23:00,40.0,20.0,30.39,SSW,200,5.0,10.0,45,-99.99,,,-99.99,,2013-01-18 17:23:00,
2013-01-18 11:43:00,42.0,20.0,30.37,WSW,240,9.0,15.0,42,-99.99,,,-99.99,,2013-01-18 17:43:00,
2013-01-18 11:53:00,42.0,20.0,30.37,WSW,240,9.0,15.0,42,-99.99,,,-99.99,,2013-01-18 17:53:00,
2013-01-18 12:13:00,44.0,22.0,30.34,SW,230,7.0,17.0,41,-99.99,,,-99.99,,2013-01-18 18:13:00,
2013-01-18 12:23:00,44.0,22.0,30.34,SW,230,7.0,17.0,41,-99.99,,,-99.99,,2013-01-18 18:23:00,
2013-01-18 12:33:00,44.0,22.0,30.33,SSW,200,9.0,16.0,42,-99.99,,,-99.99,,2013-01-18 18:33:00,
2013-01-18 12:43:00,44.0,22.0,30.32,SSW,200,9.0,15.0,42,-99.99,,,-99.99,,2013-01-18 18:43:00,
2013-01-18 12:52:00,44.0,22.0,30.32,SSW,200,9.0,15.0,42,-99.99,,,-99.99,,2013-01-18 18:52:00,
2013-01-18 13:03:00,45.0,23.0,30.30,South,180,6.0,13.0,41,-99.99,,,-99.99,,2013-01-18 19:03:00,
2013-01-18 13:12:00,46.0,22.0,30.29,SW,215,7.0,15.0,38,-99.99,,,-99.99,,2013-01-18 19:12:00,
2013-01-18 13:23:00,46.0,22.0,30.29,SW,215,7.0,15.0,38,-99.99,,,-99.99,,2013-01-18 19:23:00,
2013-01-18 13:33:00,48.0,23.0,30.28,SW,220,8.0,14.0,36,-99.99,,,-99.99,,2013-01-18 19:33:00,
2013-01-18 13:43:00,49.0,22.0,30.26,SSW,205,7.0,20.0,35,-99.99,,,-99.99,,2013-01-18 19:43:00,
2013-01-18 13:52:00,49.0,22.0,30.26,SSW,205,7.0,20.0,35,-99.99,,,-99.99,,2013-01-18 19:52:00,
2013-01-18 14:03:00,50.0,22.0,30.25,SSW,210,9.0,15.0,33,-99.99,,,-99.99,,2013-01-18 20:03:00,
2013-01-18 14:13:00,51.0,21.0,30.25,SSW,195,10.0,18.0,31,-99.99,,,-99.99,,2013-01-18 20:13:00,
2013-01-18 14:23:00,51.0,21.0,30.25,SSW,195,10.0,18.0,31,-99.99,,,-99.99,,2013-01-18 20:23:00,
2013-01-18 14:33:00,52.0,21.0,30.24,SSW,210,9.0,18.0,30,-99.99,,,-99.99,,2013-01-18 20:33:00,
2013-01-18 14:43:00,52.0,21.0,30.23,SW,235,9.0,15.0,29,-99.99,,,-99.99,,2013-01-18 20:43:00,
2013-01-18 14:52:00,52.0,21.0,30.23,SW,235,9.0,15.0,29,-99.99,,,-99.99,,2013-01-18 20:52:00,
2013-01-18 15:03:00,53.0,21.0,30.22,SW,215,7.0,17.0,28,-99.99,,,-99.99,,2013-01-18 21:03:00,
2013-01-18 15:13:00,53.0,17.0,30.21,SSW,205,7.0,14.0,24,-99.99,,,-99.99,,2013-01-18 21:13:00,
2013-01-18 15:23:00,53.0,17.0,30.21,SSW,205,7.0,14.0,24,-99.99,,,-99.99,,2013-01-18 21:23:00,
2013-01-18 15:33:00,53.0,21.0,30.20,SW,225,12.0,21.0,28,-99.99,,,-99.99,,2013-01-18 21:33:00,
2013-01-18 15:43:00,53.0,21.0,30.19,SW,225,13.0,19.0,28,-99.99,,,-99.99,,2013-01-18 21:43:00,
2013-01-18 15:52:00,53.0,21.0,30.19,SW,225,13.0,19.0,28,-99.99,,,-99.99,,2013-01-18 21:52:00,
2013-01-18 16:03:00,54.0,22.0,30.18,SW,230,8.0,17.0,28,-99.99,,,-99.99,,2013-01-18 22:03:00,
2013-01-18 16:12:00,54.0,21.0,30.18,SW,215,12.0,20.0,28,-99.99,,,-99.99,,2013-01-18 22:12:00,
2013-01-18 16:23:00,54.0,21.0,30.18,SW,215,12.0,20.0,28,-99.99,,,-99.99,,2013-01-18 22:23:00,
2013-01-18 16:33:00,54.0,22.0,30.17,SW,220,10.0,18.0,28,-99.99,,,-99.99,,2013-01-18 22:33:00,
2013-01-18 16:43:00,54.0,22.0,30.17,SW,220,10.0,18.0,28,-99.99,,,-99.99,,2013-01-18 22:43:00,
2013-01-18 16:52:00,54.0,21.0,30.16,SW,220,11.0,17.0,27,-99.99,,,-99.99,,2013-01-18 22:52:00,
2013-01-18 17:03:00,54.0,21.0,30.16,SW,220,11.0,17.0,27,-99.99,,,-99.99,,2013-01-18 23:03:00,
2013-01-18 17:12:00,54.0,20.0,30.16,SW,215,11.0,20.0,27,-99.99,,,-99.99,,2013-01-18 23:12:00,
2013-01-18 17:22:00,54.0,20.0,30.16,SW,215,11.0,20.0,27,-99.99,,,-99.99,,2013-01-18 23:22:00,
2013-01-18 17:33:00,53.0,20.0,30.16,SW,230,7.0,15.0,27,-99.99,,,-99.99,,2013-01-18 23:33:00,
2013-01-18 17:43:00,53.0,21.0,30.16,SW,230,7.0,18.0,28,-99.99,,,-99.99,,2013-01-18 23:43:00,
2013-01-18 17:52:00,53.0,21.0,30.16,SW,230,7.0,18.0,28,-99.99,,,-99.99,,2013-01-18 23:52:00,
2013-01-18 18:02:00,51.0,21.0,30.16,SW,220,7.0,13.0,30,-99.99,,,-99.99,,2013-01-19 00:02:00,
2013-01-18 18:12:00,51.0,21.0,30.16,SSW,205,5.0,15.0,30,-99.99,,,-99.99,,2013-01-19 00:12:00,
2013-01-18 18:22:00,51.0,21.0,30.16,SSW,205,5.0,15.0,30,-99.99,,,-99.99,,2013-01-19 00:22:00,
2013-01-18 18:33:00,50.0,22.0,30.16,SW,220,6.0,14.0,33,-99.99,,,-99.99,,2013-01-19 00:33:00,
2013-01-18 18:43:00,49.0,22.0,30.16,SW,220,7.0,12.0,33,-99.99,,,-99.99,,2013-01-19 00:43:00,
2013-01-18 18:53:00,49.0,22.0,30.16,SW,220,7.0,12.0,33,-99.99,,,-99.99,,2013-01-19 00:53:00,
2013-01-18 19:02:00,49.0,0.0,30.16,SW,215,7.0,14.0,13,-99.99,,,-99.99,,2013-01-19 01:02:00,
2013-01-18 19:12:00,49.0,22.0,30.16,SW,215,7.0,12.0,34,-99.99,,,-99.99,,2013-01-19 01:12:00,
2013-01-18 19:22:00,49.0,22.0,30.16,SW,215,7.0,12.0,34,-99.99,,,-99.99,,2013-01-19 01:22:00,
2013-01-18 19:32:00,48.0,21.0,30.16,SW,220,6.0,12.0,34,-99.99,,,-99.99,,2013-01-19 01:32:00,
2013-01-18 19:42:00,47.0,23.0,30.16,SW,220,7.0,12.0,37,-99.99,,,-99.99,,2013-01-19 01:42:00,
2013-01-18 19:52:00,47.0,23.0,30.16,SW,220,7.0,12.0,37,-99.99,,,-99.99,,2013-01-19 01:52:00,
2013-01-18 20:02:00,46.0,22.0,30.15,SW,220,6.0,15.0,39,-99.99,,,-99.99,,2013-01-19 02:02:00,
2013-01-18 20:12:00,45.0,23.0,30.15,SW,220,8.0,14.0,40,-99.99,,,-99.99,,2013-01-19 02:12:00,
2013-01-18 20:22:00,45.0,23.0,30.15,SW,220,8.0,14.0,40,-99.99,,,-99.99,,2013-01-19 02:22:00,
2013-01-18 20:33:00,45.0,24.0,30.14,SW,235,7.0,14.0,43,-99.99,,,-99.99,,2013-01-19 02:33:00,
2013-01-18 20:43:00,44.0,24.0,30.14,SSW,210,9.0,14.0,44,-99.99,,,-99.99,,2013-01-19 02:43:00,
2013-01-18 20:53:00,44.0,24.0,30.14,SSW,210,9.0,14.0,44,-99.99,,,-99.99,,2013-01-19 02:53:00,
2013-01-18 21:03:00,44.0,24.0,30.13,SSW,195,7.0,12.0,46,-99.99,,,-99.99,,2013-01-19 03:03:00,
2013-01-18 21:12:00,43.0,24.0,30.13,SW,225,7.0,14.0,47,-99.99,,,-99.99,,2013-01-19 03:12:00,
2013-01-18 21:22:00,43.0,24.0,30.13,SW,225,7.0,14.0,47,-99.99,,,-99.99,,2013-01-19 03:22:00,
2013-01-18 21:33:00,43.0,9.0,30.12,SW,215,8.0,17.0,24,-99.99,,,-99.99,,2013-01-19 03:33:00,
2013-01-18 21:43:00,43.0,25.0,30.12,SSW,210,8.0,16.0,48,-99.99,,,-99.99,,2013-01-19 03:43:00,
2013-01-18 21:52:00,43.0,25.0,30.12,SSW,210,8.0,16.0,48,-99.99,,,-99.99,,2013-01-19 03:52:00,
2013-01-18 22:02:00,42.0,-44.0,30.12,SW,235,8.0,15.0,0,-99.99,,,-99.99,,2013-01-19 04:02:00,
2013-01-18 22:33:00,-999.0,-99.9,30.11,SSW,205,8.0,13.0,0,-99.99,,,-99.99,,2013-01-19 04:33:00,
2013-01-18 23:12:00,43.0,-44.0,30.10,SW,220,7.0,13.0,0,-99.99,,,-99.99,,2013-01-19 05:12:00,
2013-01-18 23:23:00,43.0,-44.0,30.10,SW,220,7.0,13.0,0,-99.99,,,-99.99,,2013-01-19 05:23:00,
2013-01-18 23:33:00,43.0,-44.0,30.10,SW,225,6.0,18.0,0,-99.99,,,-99.99,,2013-01-19 05:33:00,
2013-01-18 23:42:00,43.0,-51.0,30.11,SW,220,7.0,15.0,1,-99.99,,,-99.99,,2013-01-19 05:42:00,
2013-01-18 23:52:00,43.0,-51.0,30.11,SW,220,7.0,15.0,1,-99.99,,,-99.99,,2013-01-19 05:52:00,